sensor_id;sensor_type;location;lat;lon;timestamp;P1;durP1;ratioP1;P2;durP2;ratioP2
48285;SDS011;34102;47.716;10.296;2023-02-22T06:12:00;2.10;;;0.80;;
48285;SDS011;34102;47.716;10.296;2023-02-22T06:14:25;2.00;;;1.05;;
48285;SDS011;34102;47.716;10.296;2023-02-22T06:16:51;5.28;;;1.20;;
48285;SDS011;34102;47.716;10.296;2023-02-22T06:19:17;2.25;;;0.95;;
48285;SDS011;34102;47.716;10.296;2023-02-22T06:21:52;2.85;;;1.10;;
48285;SDS011;34102;47.716;10.296;2023-02-22T06:24:18;2.97;;;1.10;;
48285;SDS011;34102;47.716;10.296;2023-02-22T06:26:43;3.53;;;0.90;;
48285;SDS011;34102;47.716;10.296;2023-02-22T06:29:09;2.55;;;0.95;;
48285;SDS011;34102;47.716;10.296;2023-02-22T06:31:34;4.63;;;0.98;;
48285;SDS011;34102;47.716;10.296;2023-02-22T06:34:00;4.25;;;1.48;;
48285;SDS011;34102;47.716;10.296;2023-02-22T06:36:25;3.17;;;1.30;;
48285;SDS011;34102;47.716;10.296;2023-02-22T06:38:50;15.95;;;6.95;;
48285;SDS011;34102;47.716;10.296;2023-02-22T06:41:16;7.75;;;2.40;;
48285;SDS011;34102;47.716;10.296;2023-02-22T06:43:41;5.95;;;2.33;;
48285;SDS011;34102;47.716;10.296;2023-02-22T06:46:10;7.13;;;1.35;;
48285;SDS011;34102;47.716;10.296;2023-02-22T06:48:36;2.58;;;1.33;;
48285;SDS011;34102;47.716;10.296;2023-02-22T06:51:02;3.97;;;1.08;;
48285;SDS011;34102;47.716;10.296;2023-02-22T06:53:27;4.07;;;1.52;;
48285;SDS011;34102;47.716;10.296;2023-02-22T06:55:52;4.47;;;1.63;;
48285;SDS011;34102;47.716;10.296;2023-02-22T06:58:19;6.70;;;2.38;;
48285;SDS011;34102;47.716;10.296;2023-02-22T07:00:44;2.15;;;1.10;;
48285;SDS011;34102;47.716;10.296;2023-02-22T07:03:09;4.68;;;1.75;;
48285;SDS011;34102;47.716;10.296;2023-02-22T07:05:34;4.82;;;2.03;;
48285;SDS011;34102;47.716;10.296;2023-02-22T07:08:01;5.50;;;1.55;;
48285;SDS011;34102;47.716;10.296;2023-02-22T07:10:28;2.97;;;1.48;;
48285;SDS011;34102;47.716;10.296;2023-02-22T07:12:53;7.78;;;2.33;;
48285;SDS011;34102;47.716;10.296;2023-02-22T07:15:19;4.38;;;1.92;;
48285;SDS011;34102;47.716;10.296;2023-02-22T07:17:46;3.35;;;2.00;;
48285;SDS011;34102;47.716;10.296;2023-02-22T07:20:11;6.13;;;2.20;;
48285;SDS011;34102;47.716;10.296;2023-02-22T07:22:37;9.88;;;2.72;;
48285;SDS011;34102;47.716;10.296;2023-02-22T07:25:03;17.77;;;7.75;;
48285;SDS011;34102;47.716;10.296;2023-02-22T07:27:28;6.07;;;3.00;;
48285;SDS011;34102;47.716;10.296;2023-02-22T07:29:54;6.25;;;2.67;;
48285;SDS011;34102;47.716;10.296;2023-02-22T07:32:19;8.63;;;2.25;;
48285;SDS011;34102;47.716;10.296;2023-02-22T07:34:44;5.95;;;2.38;;
48285;SDS011;34102;47.716;10.296;2023-02-22T07:37:09;10.48;;;2.33;;
48285;SDS011;34102;47.716;10.296;2023-02-22T07:39:35;8.25;;;2.65;;
48285;SDS011;34102;47.716;10.296;2023-02-22T07:42:02;10.85;;;2.65;;
48285;SDS011;34102;47.716;10.296;2023-02-22T07:44:27;4.60;;;2.08;;
48285;SDS011;34102;47.716;10.296;2023-02-22T07:46:52;6.30;;;1.65;;
48285;SDS011;34102;47.716;10.296;2023-02-22T07:49:17;4.60;;;1.70;;
48285;SDS011;34102;47.716;10.296;2023-02-22T07:51:43;5.47;;;1.75;;
48285;SDS011;34102;47.716;10.296;2023-02-22T07:54:08;3.70;;;1.60;;
48285;SDS011;34102;47.716;10.296;2023-02-22T07:56:33;3.53;;;1.17;;
48285;SDS011;34102;47.716;10.296;2023-02-22T07:58:58;4.10;;;1.40;;
48285;SDS011;34102;47.716;10.296;2023-02-22T08:01:25;3.53;;;0.80;;
48285;SDS011;34102;47.716;10.296;2023-02-22T08:03:50;4.30;;;0.90;;
48285;SDS011;34102;47.716;10.296;2023-02-22T08:06:16;6.43;;;1.73;;
48285;SDS011;34102;47.716;10.296;2023-02-22T08:08:42;8.40;;;1.88;;
48285;SDS011;34102;47.716;10.296;2023-02-22T08:11:07;8.82;;;1.67;;
48285;SDS011;34102;47.716;10.296;2023-02-22T08:13:32;10.25;;;2.50;;
48285;SDS011;34102;47.716;10.296;2023-02-22T08:15:58;6.75;;;1.63;;
48285;SDS011;34102;47.716;10.296;2023-02-22T08:18:23;5.87;;;2.10;;
48285;SDS011;34102;47.716;10.296;2023-02-22T08:20:49;6.38;;;1.45;;
48285;SDS011;34102;47.716;10.296;2023-02-22T08:23:16;53.20;;;30.38;;
48285;SDS011;34102;47.716;10.296;2023-02-22T08:25:41;5.82;;;2.65;;
48285;SDS011;34102;47.716;10.296;2023-02-22T08:28:08;5.03;;;1.93;;
48285;SDS011;34102;47.716;10.296;2023-02-22T08:30:35;5.05;;;1.80;;
48285;SDS011;34102;47.716;10.296;2023-02-22T08:33:01;9.88;;;2.00;;
48285;SDS011;34102;47.716;10.296;2023-02-22T08:35:27;11.85;;;2.22;;
48285;SDS011;34102;47.716;10.296;2023-02-22T08:37:56;4.47;;;1.50;;
48285;SDS011;34102;47.716;10.296;2023-02-22T08:40:23;4.65;;;1.38;;
48285;SDS011;34102;47.716;10.296;2023-02-22T08:42:48;3.13;;;1.35;;
48285;SDS011;34102;47.716;10.296;2023-02-22T08:45:14;5.30;;;1.75;;
48285;SDS011;34102;47.716;10.296;2023-02-22T08:47:39;4.50;;;1.40;;
48285;SDS011;34102;47.716;10.296;2023-02-22T08:50:05;3.67;;;1.45;;
48285;SDS011;34102;47.716;10.296;2023-02-22T08:52:31;3.97;;;1.30;;
48285;SDS011;34102;47.716;10.296;2023-02-22T08:54:56;8.27;;;1.38;;
48285;SDS011;34102;47.716;10.296;2023-02-22T08:57:21;3.30;;;1.38;;
48285;SDS011;34102;47.716;10.296;2023-02-22T08:59:46;4.03;;;0.90;;
48285;SDS011;34102;47.716;10.296;2023-02-22T09:02:16;4.97;;;2.13;;
48285;SDS011;34102;47.716;10.296;2023-02-22T09:04:41;3.45;;;1.30;;
48285;SDS011;34102;47.716;10.296;2023-02-22T09:07:07;3.10;;;1.23;;
48285;SDS011;34102;47.716;10.296;2023-02-22T09:09:32;6.97;;;1.80;;
48285;SDS011;34102;47.716;10.296;2023-02-22T09:11:58;4.68;;;1.23;;
48285;SDS011;34102;47.716;10.296;2023-02-22T09:14:23;5.43;;;0.90;;
48285;SDS011;34102;47.716;10.296;2023-02-22T09:16:48;6.93;;;1.00;;
48285;SDS011;34102;47.716;10.296;2023-02-22T09:19:13;2.25;;;1.30;;
48285;SDS011;34102;47.716;10.296;2023-02-22T09:21:39;3.70;;;1.17;;
48285;SDS011;34102;47.716;10.296;2023-02-22T09:24:05;11.70;;;1.40;;
48285;SDS011;34102;47.716;10.296;2023-02-22T09:26:35;2.60;;;1.27;;
48285;SDS011;34102;47.716;10.296;2023-02-22T09:29:03;1.73;;;0.98;;
48285;SDS011;34102;47.716;10.296;2023-02-22T09:31:29;4.20;;;0.90;;
48285;SDS011;34102;47.716;10.296;2023-02-22T09:33:54;6.65;;;1.15;;
48285;SDS011;34102;47.716;10.296;2023-02-22T09:36:19;2.88;;;1.00;;
48285;SDS011;34102;47.716;10.296;2023-02-22T09:38:45;5.85;;;0.90;;
48285;SDS011;34102;47.716;10.296;2023-02-22T09:41:18;4.78;;;1.20;;
48285;SDS011;34102;47.716;10.296;2023-02-22T09:44:06;5.70;;;2.80;;
48285;SDS011;34102;47.716;10.296;2023-02-22T09:46:36;4.38;;;0.95;;
48285;SDS011;34102;47.716;10.296;2023-02-22T09:51:30;3.20;;;0.80;;
48285;SDS011;34102;47.716;10.296;2023-02-22T09:53:59;5.65;;;1.58;;
48285;SDS011;34102;47.716;10.296;2023-02-22T09:56:26;1.77;;;0.70;;
48285;SDS011;34102;47.716;10.296;2023-02-22T09:58:56;6.18;;;0.80;;
48285;SDS011;34102;47.716;10.296;2023-02-22T10:01:23;2.17;;;0.85;;
48285;SDS011;34102;47.716;10.296;2023-02-22T10:06:34;4.57;;;1.00;;
48285;SDS011;34102;47.716;10.296;2023-02-22T10:09:01;2.83;;;1.00;;
48285;SDS011;34102;47.716;10.296;2023-02-22T10:11:42;2.88;;;0.77;;
48285;SDS011;34102;47.716;10.296;2023-02-22T10:16:48;3.78;;;1.45;;
48285;SDS011;34102;47.716;10.296;2023-02-22T10:22:09;5.43;;;1.77;;
48285;SDS011;34102;47.716;10.296;2023-02-22T10:24:54;5.75;;;2.05;;
48285;SDS011;34102;47.716;10.296;2023-02-22T10:27:22;10.77;;;4.03;;
48285;SDS011;34102;47.716;10.296;2023-02-22T10:29:53;7.25;;;2.03;;
48285;SDS011;34102;47.716;10.296;2023-02-22T10:32:23;11.95;;;2.55;;
48285;SDS011;34102;47.716;10.296;2023-02-22T10:34:50;7.45;;;2.33;;
48285;SDS011;34102;47.716;10.296;2023-02-22T10:39:41;8.30;;;2.23;;
48285;SDS011;34102;47.716;10.296;2023-02-22T10:42:07;7.38;;;2.42;;
48285;SDS011;34102;47.716;10.296;2023-02-22T10:44:37;8.05;;;3.13;;
48285;SDS011;34102;47.716;10.296;2023-02-22T10:47:04;9.25;;;3.10;;
48285;SDS011;34102;47.716;10.296;2023-02-22T10:49:35;7.10;;;3.40;;
48285;SDS011;34102;47.716;10.296;2023-02-22T10:52:01;6.47;;;3.03;;
48285;SDS011;34102;47.716;10.296;2023-02-22T10:54:33;6.82;;;2.47;;
48285;SDS011;34102;47.716;10.296;2023-02-22T10:57:00;5.85;;;2.70;;
48285;SDS011;34102;47.716;10.296;2023-02-22T10:59:29;4.15;;;2.05;;
48285;SDS011;34102;47.716;10.296;2023-02-22T11:01:56;4.38;;;2.33;;
48285;SDS011;34102;47.716;10.296;2023-02-22T11:04:22;6.35;;;1.58;;
48285;SDS011;34102;47.716;10.296;2023-02-22T11:06:48;4.32;;;1.88;;
48285;SDS011;34102;47.716;10.296;2023-02-22T11:09:18;3.22;;;1.08;;
48285;SDS011;34102;47.716;10.296;2023-02-22T11:11:46;4.72;;;1.58;;
48285;SDS011;34102;47.716;10.296;2023-02-22T11:14:27;9.02;;;1.92;;
48285;SDS011;34102;47.716;10.296;2023-02-22T11:16:53;5.07;;;1.60;;
48285;SDS011;34102;47.716;10.296;2023-02-22T11:19:21;4.43;;;1.77;;
48285;SDS011;34102;47.716;10.296;2023-02-22T11:21:52;4.18;;;1.85;;
48285;SDS011;34102;47.716;10.296;2023-02-22T11:24:19;5.85;;;1.95;;
48285;SDS011;34102;47.716;10.296;2023-02-22T11:26:49;4.18;;;2.33;;
48285;SDS011;34102;47.716;10.296;2023-02-22T11:31:43;5.93;;;2.13;;
48285;SDS011;34102;47.716;10.296;2023-02-22T11:34:23;7.53;;;2.22;;
48285;SDS011;34102;47.716;10.296;2023-02-22T11:36:49;9.10;;;2.65;;
48285;SDS011;34102;47.716;10.296;2023-02-22T11:39:26;5.60;;;2.40;;
48285;SDS011;34102;47.716;10.296;2023-02-22T11:41:52;7.63;;;2.72;;
48285;SDS011;34102;47.716;10.296;2023-02-22T11:46:49;7.28;;;2.45;;
48285;SDS011;34102;47.716;10.296;2023-02-22T11:49:14;9.35;;;2.33;;
48285;SDS011;34102;47.716;10.296;2023-02-22T11:54:11;4.47;;;2.17;;
48285;SDS011;34102;47.716;10.296;2023-02-22T11:56:47;5.43;;;2.15;;
48285;SDS011;34102;47.716;10.296;2023-02-22T12:01:57;6.30;;;2.88;;
48285;SDS011;34102;47.716;10.296;2023-02-22T12:12:17;6.00;;;3.13;;
48285;SDS011;34102;47.716;10.296;2023-02-22T12:19:40;6.90;;;2.55;;
48285;SDS011;34102;47.716;10.296;2023-02-22T12:22:09;8.43;;;3.45;;
48285;SDS011;34102;47.716;10.296;2023-02-22T12:24:37;7.22;;;3.50;;
48285;SDS011;34102;47.716;10.296;2023-02-22T12:27:10;7.25;;;3.85;;
48285;SDS011;34102;47.716;10.296;2023-02-22T12:29:43;13.80;;;5.00;;
48285;SDS011;34102;47.716;10.296;2023-02-22T12:34:42;8.52;;;4.90;;
48285;SDS011;34102;47.716;10.296;2023-02-22T12:39:48;15.00;;;5.47;;
48285;SDS011;34102;47.716;10.296;2023-02-22T12:42:28;7.97;;;4.80;;
48285;SDS011;34102;47.716;10.296;2023-02-22T12:44:59;12.48;;;5.53;;
48285;SDS011;34102;47.716;10.296;2023-02-22T12:47:32;15.25;;;5.68;;
48285;SDS011;34102;47.716;10.296;2023-02-22T12:55:19;16.40;;;9.47;;
48285;SDS011;34102;47.716;10.296;2023-02-22T13:00:20;15.18;;;9.23;;
48285;SDS011;34102;47.716;10.296;2023-02-22T13:05:35;16.52;;;9.55;;
48285;SDS011;34102;47.716;10.296;2023-02-22T13:13:33;16.27;;;9.48;;
48285;SDS011;34102;47.716;10.296;2023-02-22T13:40:04;13.13;;;8.05;;
48285;SDS011;34102;47.716;10.296;2023-02-22T13:48:07;12.57;;;8.13;;
48285;SDS011;34102;47.716;10.296;2023-02-22T13:50:39;17.45;;;8.50;;
48285;SDS011;34102;47.716;10.296;2023-02-22T13:53:10;14.60;;;8.52;;
48285;SDS011;34102;47.716;10.296;2023-02-22T13:55:36;12.70;;;7.55;;
48285;SDS011;34102;47.716;10.296;2023-02-22T13:58:06;12.40;;;8.02;;
48285;SDS011;34102;47.716;10.296;2023-02-22T14:00:40;14.45;;;8.50;;
48285;SDS011;34102;47.716;10.296;2023-02-22T14:13:07;14.57;;;8.93;;
48285;SDS011;34102;47.716;10.296;2023-02-22T14:15:33;13.23;;;8.15;;
48285;SDS011;34102;47.716;10.296;2023-02-22T14:17:59;11.85;;;8.38;;
48285;SDS011;34102;47.716;10.296;2023-02-22T14:20:29;12.70;;;8.68;;
48285;SDS011;34102;47.716;10.296;2023-02-22T14:22:56;13.48;;;7.65;;
48285;SDS011;34102;47.716;10.296;2023-02-22T14:25:38;11.57;;;8.05;;
48285;SDS011;34102;47.716;10.296;2023-02-22T14:28:08;13.13;;;8.07;;
48285;SDS011;34102;47.716;10.296;2023-02-22T14:30:35;11.10;;;7.15;;
48285;SDS011;34102;47.716;10.296;2023-02-22T14:33:01;10.27;;;6.88;;
48285;SDS011;34102;47.716;10.296;2023-02-22T14:35:39;14.05;;;6.68;;
48285;SDS011;34102;47.716;10.296;2023-02-22T14:38:06;10.98;;;6.82;;
48285;SDS011;34102;47.716;10.296;2023-02-22T14:40:35;10.35;;;6.60;;
48285;SDS011;34102;47.716;10.296;2023-02-22T14:43:02;12.68;;;6.82;;
48285;SDS011;34102;47.716;10.296;2023-02-22T14:45:30;10.48;;;6.68;;
48285;SDS011;34102;47.716;10.296;2023-02-22T14:58:22;10.00;;;5.05;;
48285;SDS011;34102;47.716;10.296;2023-02-22T15:05:41;10.40;;;5.10;;
48285;SDS011;34102;47.716;10.296;2023-02-22T15:08:07;9.40;;;5.53;;
48285;SDS011;34102;47.716;10.296;2023-02-22T15:13:01;10.38;;;5.85;;
48285;SDS011;34102;47.716;10.296;2023-02-22T15:15:36;8.65;;;5.28;;
48285;SDS011;34102;47.716;10.296;2023-02-22T15:18:01;12.05;;;5.95;;
48285;SDS011;34102;47.716;10.296;2023-02-22T15:20:30;12.10;;;5.93;;
48285;SDS011;34102;47.716;10.296;2023-02-22T15:22:57;12.23;;;6.20;;
48285;SDS011;34102;47.716;10.296;2023-02-22T15:25:24;9.82;;;6.60;;
48285;SDS011;34102;47.716;10.296;2023-02-22T15:27:49;14.63;;;7.00;;
48285;SDS011;34102;47.716;10.296;2023-02-22T15:30:17;12.50;;;7.07;;
48285;SDS011;34102;47.716;10.296;2023-02-22T15:32:44;8.98;;;6.18;;
48285;SDS011;34102;47.716;10.296;2023-02-22T15:37:37;10.88;;;5.82;;
48285;SDS011;34102;47.716;10.296;2023-02-22T15:40:07;9.48;;;5.47;;
48285;SDS011;34102;47.716;10.296;2023-02-22T15:42:50;12.65;;;6.00;;
48285;SDS011;34102;47.716;10.296;2023-02-22T15:45:22;11.07;;;5.65;;
48285;SDS011;34102;47.716;10.296;2023-02-22T15:47:52;10.93;;;5.55;;
48285;SDS011;34102;47.716;10.296;2023-02-22T15:50:22;11.43;;;5.85;;
48285;SDS011;34102;47.716;10.296;2023-02-22T15:52:54;13.15;;;5.50;;
48285;SDS011;34102;47.716;10.296;2023-02-22T15:55:31;9.50;;;6.07;;
48285;SDS011;34102;47.716;10.296;2023-02-22T15:58:06;8.98;;;6.35;;
48285;SDS011;34102;47.716;10.296;2023-02-22T16:00:33;10.75;;;6.13;;
48285;SDS011;34102;47.716;10.296;2023-02-22T16:03:03;15.70;;;8.60;;
48285;SDS011;34102;47.716;10.296;2023-02-22T16:05:31;11.80;;;6.43;;
48285;SDS011;34102;47.716;10.296;2023-02-22T16:07:58;10.73;;;6.97;;
48285;SDS011;34102;47.716;10.296;2023-02-22T16:10:28;13.18;;;6.53;;
48285;SDS011;34102;47.716;10.296;2023-02-22T16:13:04;9.38;;;6.85;;
48285;SDS011;34102;47.716;10.296;2023-02-22T16:15:33;8.52;;;5.90;;
48285;SDS011;34102;47.716;10.296;2023-02-22T16:18:15;13.18;;;7.00;;
48285;SDS011;34102;47.716;10.296;2023-02-22T16:20:40;11.30;;;6.72;;
48285;SDS011;34102;47.716;10.296;2023-02-22T16:23:23;13.07;;;8.63;;
48285;SDS011;34102;47.716;10.296;2023-02-22T16:26:00;14.07;;;7.55;;
48285;SDS011;34102;47.716;10.296;2023-02-22T16:28:26;12.07;;;8.07;;
48285;SDS011;34102;47.716;10.296;2023-02-22T16:30:57;14.32;;;7.90;;
48285;SDS011;34102;47.716;10.296;2023-02-22T16:33:23;11.45;;;7.72;;
48285;SDS011;34102;47.716;10.296;2023-02-22T16:35:53;12.10;;;7.70;;
48285;SDS011;34102;47.716;10.296;2023-02-22T16:38:21;15.70;;;8.38;;
48285;SDS011;34102;47.716;10.296;2023-02-22T16:40:51;13.52;;;8.13;;
48285;SDS011;34102;47.716;10.296;2023-02-22T16:43:19;15.38;;;7.90;;
48285;SDS011;34102;47.716;10.296;2023-02-22T16:45:45;12.25;;;8.30;;
48285;SDS011;34102;47.716;10.296;2023-02-22T16:48:14;16.55;;;8.55;;
48285;SDS011;34102;47.716;10.296;2023-02-22T16:50:41;14.40;;;8.02;;
48285;SDS011;34102;47.716;10.296;2023-02-22T16:53:06;11.95;;;8.20;;
48285;SDS011;34102;47.716;10.296;2023-02-22T16:55:31;13.55;;;8.00;;
48285;SDS011;34102;47.716;10.296;2023-02-22T16:57:57;11.45;;;7.30;;
48285;SDS011;34102;47.716;10.296;2023-02-22T17:00:25;12.70;;;8.23;;
48285;SDS011;34102;47.716;10.296;2023-02-22T17:02:57;17.73;;;8.50;;
48285;SDS011;34102;47.716;10.296;2023-02-22T17:05:22;14.15;;;8.82;;
48285;SDS011;34102;47.716;10.296;2023-02-22T17:07:48;12.80;;;8.60;;
48285;SDS011;34102;47.716;10.296;2023-02-22T17:10:14;13.13;;;8.90;;
48285;SDS011;34102;47.716;10.296;2023-02-22T17:12:40;22.40;;;9.20;;
48285;SDS011;34102;47.716;10.296;2023-02-22T17:15:10;13.68;;;8.35;;
48285;SDS011;34102;47.716;10.296;2023-02-22T17:17:36;17.30;;;9.02;;
48285;SDS011;34102;47.716;10.296;2023-02-22T17:20:02;21.48;;;10.27;;
48285;SDS011;34102;47.716;10.296;2023-02-22T17:22:35;15.68;;;9.55;;
48285;SDS011;34102;47.716;10.296;2023-02-22T17:25:00;14.30;;;9.43;;
48285;SDS011;34102;47.716;10.296;2023-02-22T17:27:25;16.45;;;9.90;;
48285;SDS011;34102;47.716;10.296;2023-02-22T17:29:51;18.07;;;9.43;;
48285;SDS011;34102;47.716;10.296;2023-02-22T17:32:16;16.65;;;10.05;;
48285;SDS011;34102;47.716;10.296;2023-02-22T17:34:41;13.52;;;9.18;;
48285;SDS011;34102;47.716;10.296;2023-02-22T17:37:06;18.13;;;9.90;;
48285;SDS011;34102;47.716;10.296;2023-02-22T17:39:32;18.48;;;9.85;;
48285;SDS011;34102;47.716;10.296;2023-02-22T17:41:57;20.20;;;11.32;;
48285;SDS011;34102;47.716;10.296;2023-02-22T17:44:23;22.35;;;10.88;;
48285;SDS011;34102;47.716;10.296;2023-02-22T17:46:49;19.70;;;11.02;;
48285;SDS011;34102;47.716;10.296;2023-02-22T17:49:14;15.05;;;10.32;;
48285;SDS011;34102;47.716;10.296;2023-02-22T17:51:39;16.48;;;10.95;;
48285;SDS011;34102;47.716;10.296;2023-02-22T17:54:05;17.27;;;9.95;;
48285;SDS011;34102;47.716;10.296;2023-02-22T17:56:30;20.02;;;11.10;;
48285;SDS011;34102;47.716;10.296;2023-02-22T17:58:55;15.87;;;10.43;;
48285;SDS011;34102;47.716;10.296;2023-02-22T18:01:28;18.42;;;10.57;;
48285;SDS011;34102;47.716;10.296;2023-02-22T18:03:55;17.13;;;11.40;;
48285;SDS011;34102;47.716;10.296;2023-02-22T18:06:21;49.65;;;27.48;;
48285;SDS011;34102;47.716;10.296;2023-02-22T18:08:51;41.70;;;25.60;;
48285;SDS011;34102;47.716;10.296;2023-02-22T18:12:04;22.38;;;14.18;;
48285;SDS011;34102;47.716;10.296;2023-02-22T18:14:11;17.08;;;10.98;;
48285;SDS011;34102;47.716;10.296;2023-02-22T18:16:37;18.13;;;10.18;;
48285;SDS011;34102;47.716;10.296;2023-02-22T18:19:03;19.88;;;10.35;;
48285;SDS011;34102;47.716;10.296;2023-02-22T18:21:28;15.55;;;10.63;;
48285;SDS011;34102;47.716;10.296;2023-02-22T18:23:53;14.52;;;9.43;;
48285;SDS011;34102;47.716;10.296;2023-02-22T18:26:20;16.70;;;10.63;;
48285;SDS011;34102;47.716;10.296;2023-02-22T18:28:45;14.50;;;9.98;;
48285;SDS011;34102;47.716;10.296;2023-02-22T18:31:13;20.25;;;10.45;;
48285;SDS011;34102;47.716;10.296;2023-02-22T18:33:39;19.55;;;10.90;;
48285;SDS011;34102;47.716;10.296;2023-02-22T18:36:04;18.30;;;10.95;;
48285;SDS011;34102;47.716;10.296;2023-02-22T18:38:30;19.55;;;11.98;;
48285;SDS011;34102;47.716;10.296;2023-02-22T18:41:04;17.35;;;11.43;;
48285;SDS011;34102;47.716;10.296;2023-02-22T18:43:30;14.07;;;10.20;;
48285;SDS011;34102;47.716;10.296;2023-02-22T18:46:06;16.48;;;10.77;;
48285;SDS011;34102;47.716;10.296;2023-02-22T18:48:31;16.58;;;10.00;;
48285;SDS011;34102;47.716;10.296;2023-02-22T18:51:00;17.70;;;10.27;;
48285;SDS011;34102;47.716;10.296;2023-02-22T18:53:26;17.40;;;9.85;;
48285;SDS011;34102;47.716;10.296;2023-02-22T18:55:52;12.35;;;9.48;;
48285;SDS011;34102;47.716;10.296;2023-02-22T18:58:17;17.55;;;10.55;;
48285;SDS011;34102;47.716;10.296;2023-02-22T19:00:42;17.38;;;9.98;;
48285;SDS011;34102;47.716;10.296;2023-02-22T19:03:07;17.57;;;10.37;;
48285;SDS011;34102;47.716;10.296;2023-02-22T19:05:33;18.02;;;9.80;;
48285;SDS011;34102;47.716;10.296;2023-02-22T19:07:59;17.63;;;11.60;;
48285;SDS011;34102;47.716;10.296;2023-02-22T19:10:25;19.63;;;11.38;;
48285;SDS011;34102;47.716;10.296;2023-02-22T19:12:50;17.67;;;10.15;;
48285;SDS011;34102;47.716;10.296;2023-02-22T19:15:16;17.90;;;10.50;;
48285;SDS011;34102;47.716;10.296;2023-02-22T19:17:41;18.38;;;11.60;;
48285;SDS011;34102;47.716;10.296;2023-02-22T19:20:08;17.37;;;10.63;;
48285;SDS011;34102;47.716;10.296;2023-02-22T19:22:34;16.65;;;10.38;;
48285;SDS011;34102;47.716;10.296;2023-02-22T19:25:00;15.55;;;10.07;;
48285;SDS011;34102;47.716;10.296;2023-02-22T19:27:27;19.63;;;11.02;;
48285;SDS011;34102;47.716;10.296;2023-02-22T19:29:57;20.67;;;10.60;;
48285;SDS011;34102;47.716;10.296;2023-02-22T19:32:23;20.50;;;11.85;;
48285;SDS011;34102;47.716;10.296;2023-02-22T19:34:51;14.95;;;9.40;;
48285;SDS011;34102;47.716;10.296;2023-02-22T19:37:17;18.25;;;9.93;;
48285;SDS011;34102;47.716;10.296;2023-02-22T19:39:46;14.48;;;9.75;;
48285;SDS011;34102;47.716;10.296;2023-02-22T19:42:11;21.38;;;11.30;;
48285;SDS011;34102;47.716;10.296;2023-02-22T19:44:37;21.17;;;12.13;;
48285;SDS011;34102;47.716;10.296;2023-02-22T19:47:02;19.65;;;12.63;;
48285;SDS011;34102;47.716;10.296;2023-02-22T19:49:32;18.13;;;12.10;;
48285;SDS011;34102;47.716;10.296;2023-02-22T19:52:00;16.80;;;11.68;;
48285;SDS011;34102;47.716;10.296;2023-02-22T19:54:28;17.70;;;11.23;;
48285;SDS011;34102;47.716;10.296;2023-02-22T19:56:53;14.90;;;10.30;;
48285;SDS011;34102;47.716;10.296;2023-02-22T19:59:20;18.88;;;10.70;;
48285;SDS011;34102;47.716;10.296;2023-02-22T20:01:47;20.15;;;12.27;;
48285;SDS011;34102;47.716;10.296;2023-02-22T20:04:14;17.85;;;11.63;;
48285;SDS011;34102;47.716;10.296;2023-02-22T20:06:42;15.70;;;10.63;;
48285;SDS011;34102;47.716;10.296;2023-02-22T20:09:10;20.50;;;14.23;;
48285;SDS011;34102;47.716;10.296;2023-02-22T20:11:36;20.60;;;12.10;;
48285;SDS011;34102;47.716;10.296;2023-02-22T20:14:02;28.65;;;15.85;;
48285;SDS011;34102;47.716;10.296;2023-02-22T20:16:30;24.83;;;13.43;;
48285;SDS011;34102;47.716;10.296;2023-02-22T20:18:56;21.30;;;11.95;;
48285;SDS011;34102;47.716;10.296;2023-02-22T20:21:30;22.90;;;11.70;;
48285;SDS011;34102;47.716;10.296;2023-02-22T20:26:23;18.05;;;10.45;;
48285;SDS011;34102;47.716;10.296;2023-02-22T20:28:49;17.08;;;10.45;;
48285;SDS011;34102;47.716;10.296;2023-02-22T20:31:15;16.52;;;11.00;;
48285;SDS011;34102;47.716;10.296;2023-02-22T20:33:41;14.65;;;9.65;;
48285;SDS011;34102;47.716;10.296;2023-02-22T20:36:07;17.73;;;10.65;;
48285;SDS011;34102;47.716;10.296;2023-02-22T20:38:33;15.68;;;10.30;;
48285;SDS011;34102;47.716;10.296;2023-02-22T20:40:59;18.15;;;11.10;;
48285;SDS011;34102;47.716;10.296;2023-02-22T20:43:24;21.77;;;11.88;;
48285;SDS011;34102;47.716;10.296;2023-02-22T20:45:49;16.73;;;10.43;;
48285;SDS011;34102;47.716;10.296;2023-02-22T20:48:14;19.23;;;10.90;;
48285;SDS011;34102;47.716;10.296;2023-02-22T20:50:40;16.63;;;9.90;;
48285;SDS011;34102;47.716;10.296;2023-02-22T20:53:05;14.73;;;10.00;;
48285;SDS011;34102;47.716;10.296;2023-02-22T20:55:30;16.30;;;10.13;;
48285;SDS011;34102;47.716;10.296;2023-02-22T20:57:55;20.90;;;11.13;;
48285;SDS011;34102;47.716;10.296;2023-02-22T21:00:21;16.10;;;11.10;;
48285;SDS011;34102;47.716;10.296;2023-02-22T21:02:46;15.95;;;10.32;;
48285;SDS011;34102;47.716;10.296;2023-02-22T21:05:12;18.55;;;9.80;;
48285;SDS011;34102;47.716;10.296;2023-02-22T21:07:37;17.58;;;9.77;;
48285;SDS011;34102;47.716;10.296;2023-02-22T21:10:03;15.75;;;10.07;;
48285;SDS011;34102;47.716;10.296;2023-02-22T21:12:30;17.08;;;10.82;;
48285;SDS011;34102;47.716;10.296;2023-02-22T21:14:56;17.00;;;10.27;;
48285;SDS011;34102;47.716;10.296;2023-02-22T21:17:22;19.50;;;10.85;;
48285;SDS011;34102;47.716;10.296;2023-02-22T21:19:53;17.33;;;10.05;;
48285;SDS011;34102;47.716;10.296;2023-02-22T21:22:19;15.55;;;10.45;;
48285;SDS011;34102;47.716;10.296;2023-02-22T21:24:44;17.58;;;10.77;;
48285;SDS011;34102;47.716;10.296;2023-02-22T21:27:09;17.95;;;10.60;;
48285;SDS011;34102;47.716;10.296;2023-02-22T21:29:36;16.80;;;10.85;;
48285;SDS011;34102;47.716;10.296;2023-02-22T21:32:02;18.20;;;10.68;;
48285;SDS011;34102;47.716;10.296;2023-02-22T21:34:33;17.83;;;10.70;;
48285;SDS011;34102;47.716;10.296;2023-02-22T21:36:58;18.63;;;10.00;;
48285;SDS011;34102;47.716;10.296;2023-02-22T21:39:24;14.00;;;10.00;;
48285;SDS011;34102;47.716;10.296;2023-02-22T21:41:52;18.13;;;10.20;;
48285;SDS011;34102;47.716;10.296;2023-02-22T21:44:18;17.73;;;11.23;;
48285;SDS011;34102;47.716;10.296;2023-02-22T21:46:43;20.95;;;11.25;;
48285;SDS011;34102;47.716;10.296;2023-02-22T21:49:11;19.70;;;11.32;;
48285;SDS011;34102;47.716;10.296;2023-02-22T21:51:36;16.50;;;11.07;;
48285;SDS011;34102;47.716;10.296;2023-02-22T21:54:03;15.75;;;9.70;;
48285;SDS011;34102;47.716;10.296;2023-02-22T21:56:30;15.00;;;10.10;;
48285;SDS011;34102;47.716;10.296;2023-02-22T21:59:00;17.02;;;10.30;;
48285;SDS011;34102;47.716;10.296;2023-02-22T22:01:27;16.02;;;9.90;;
48285;SDS011;34102;47.716;10.296;2023-02-22T22:03:53;17.52;;;10.77;;
48285;SDS011;34102;47.716;10.296;2023-02-22T22:06:18;17.95;;;10.60;;
48285;SDS011;34102;47.716;10.296;2023-02-22T22:08:44;17.27;;;10.50;;
48285;SDS011;34102;47.716;10.296;2023-02-22T22:11:10;18.08;;;11.05;;
48285;SDS011;34102;47.716;10.296;2023-02-22T22:13:37;17.33;;;10.55;;
48285;SDS011;34102;47.716;10.296;2023-02-22T22:16:07;27.17;;;11.95;;
48285;SDS011;34102;47.716;10.296;2023-02-22T22:18:34;15.90;;;10.63;;
48285;SDS011;34102;47.716;10.296;2023-02-22T22:21:03;17.38;;;10.45;;
48285;SDS011;34102;47.716;10.296;2023-02-22T22:23:29;17.45;;;10.98;;
48285;SDS011;34102;47.716;10.296;2023-02-22T22:25:59;16.92;;;10.95;;
48285;SDS011;34102;47.716;10.296;2023-02-22T22:28:26;20.00;;;10.98;;
48285;SDS011;34102;47.716;10.296;2023-02-22T22:30:51;18.15;;;11.38;;
48285;SDS011;34102;47.716;10.296;2023-02-22T22:33:16;23.43;;;13.03;;
48285;SDS011;34102;47.716;10.296;2023-02-22T22:35:41;17.80;;;11.30;;